DEFMA EDLY-EDLB
Flight info
| Callsign | DEFMA |
|---|---|
| Flight time | 0h 10m |
| Altitude | 2000 |
| Route | EDDG/25 VFR |
| Aircraft | DA40/L-S/L |
Departure
| Time | 2026-05-07 17:50 |
|---|---|
| Airport | Borken-Hoxfeld Airfield (EDLY) |
Arrival
| Time | 2026-05-07 18:00 |
|---|---|
| Airport | Borkenberge Airfield (EDLB) |
| Time | Latitude | Longitude | Altitude | Speed | Heading |
|---|---|---|---|---|---|
| 2026-05-07 17:50 | 51.83842 | 6.80040 | 1586 ft | 103 kts | 111° |
| 2026-05-07 17:50 | 51.83560 | 6.81117 | 1610 ft | 109 kts | 108° |
| 2026-05-07 17:50 | 51.83321 | 6.82328 | 1602 ft | 113 kts | 103° |
| 2026-05-07 17:50 | 51.83109 | 6.83557 | 1605 ft | 114 kts | 102° |
| 2026-05-07 17:51 | 51.82911 | 6.84822 | 1594 ft | 116 kts | 102° |
| 2026-05-07 17:51 | 51.82710 | 6.86085 | 1591 ft | 115 kts | 102° |
| 2026-05-07 17:51 | 51.82510 | 6.87328 | 1591 ft | 114 kts | 102° |
| 2026-05-07 17:51 | 51.82318 | 6.88569 | 1594 ft | 114 kts | 102° |
| 2026-05-07 17:52 | 51.82129 | 6.89822 | 1593 ft | 115 kts | 102° |
| 2026-05-07 17:52 | 51.81929 | 6.91074 | 1596 ft | 115 kts | 102° |
| 2026-05-07 17:52 | 51.81734 | 6.92319 | 1595 ft | 114 kts | 101° |
| 2026-05-07 17:52 | 51.81603 | 6.93577 | 1595 ft | 113 kts | 97° |
| 2026-05-07 17:53 | 51.81481 | 6.94827 | 1594 ft | 113 kts | 97° |
| 2026-05-07 17:53 | 51.81368 | 6.96076 | 1583 ft | 111 kts | 98° |
| 2026-05-07 17:53 | 51.81237 | 6.97293 | 1606 ft | 110 kts | 98° |
| 2026-05-07 17:53 | 51.81106 | 6.98527 | 1603 ft | 112 kts | 97° |
| 2026-05-07 17:54 | 51.80976 | 6.99760 | 1604 ft | 110 kts | 97° |
| 2026-05-07 17:54 | 51.80850 | 7.00978 | 1615 ft | 110 kts | 98° |
| 2026-05-07 17:54 | 51.80722 | 7.02205 | 1616 ft | 111 kts | 97° |
| 2026-05-07 17:54 | 51.80594 | 7.03428 | 1613 ft | 112 kts | 98° |
| 2026-05-07 17:55 | 51.80464 | 7.04674 | 1611 ft | 111 kts | 98° |
| 2026-05-07 17:55 | 51.80334 | 7.05916 | 1611 ft | 112 kts | 98° |
| 2026-05-07 17:55 | 51.80205 | 7.07158 | 1610 ft | 112 kts | 98° |
| 2026-05-07 17:55 | 51.80076 | 7.08384 | 1614 ft | 112 kts | 97° |
| 2026-05-07 17:56 | 51.79945 | 7.09634 | 1614 ft | 113 kts | 97° |
| 2026-05-07 17:56 | 51.79813 | 7.10890 | 1614 ft | 114 kts | 97° |
| 2026-05-07 17:56 | 51.79682 | 7.12148 | 1615 ft | 113 kts | 98° |
| 2026-05-07 17:56 | 51.79549 | 7.13404 | 1615 ft | 113 kts | 98° |
| 2026-05-07 17:57 | 51.79417 | 7.14662 | 1617 ft | 114 kts | 98° |
| 2026-05-07 17:57 | 51.79327 | 7.15514 | 1614 ft | 114 kts | 97° |
| 2026-05-07 17:57 | 51.79151 | 7.17189 | 1617 ft | 114 kts | 98° |
| 2026-05-07 17:57 | 51.79017 | 7.18461 | 1617 ft | 115 kts | 98° |
| 2026-05-07 17:58 | 51.78882 | 7.19735 | 1617 ft | 115 kts | 98° |
| 2026-05-07 17:58 | 51.78747 | 7.21008 | 1631 ft | 115 kts | 99° |
| 2026-05-07 17:58 | 51.78612 | 7.22270 | 1584 ft | 114 kts | 99° |
| 2026-05-07 17:58 | 51.78242 | 7.23391 | 1212 ft | 112 kts | 124° |
| 2026-05-07 17:59 | 51.77818 | 7.24398 | 846 ft | 105 kts | 116° |
| 2026-05-07 17:59 | 51.77558 | 7.25486 | 459 ft | 103 kts | 96° |
| 2026-05-07 17:59 | 51.77644 | 7.26499 | 397 ft | 78 kts | 76° |
| 2026-05-07 17:59 | 51.77768 | 7.27300 | 323 ft | 71 kts | 75° |
| 2026-05-07 18:00 | 51.77884 | 7.28051 | 213 ft | 68 kts | 76° |
| 2026-05-07 18:00 | 51.77990 | 7.28730 | 158 ft | 49 kts | 75° |
| 2026-05-07 18:00 | 51.78049 | 7.29111 | 162 ft | 22 kts | 74° |
| 2026-05-07 18:00 | 51.78079 | 7.29310 | 165 ft | 14 kts | 76° |
| 2026-05-07 18:01 | 51.78117 | 7.29337 | 164 ft | 4 kts | 291° |
| 2026-05-07 18:01 | 51.78109 | 7.29248 | 162 ft | 11 kts | 253° |
| 2026-05-07 18:01 | 51.78088 | 7.29123 | 161 ft | 12 kts | 257° |
| 2026-05-07 18:01 | 51.78067 | 7.28981 | 158 ft | 14 kts | 256° |
| 2026-05-07 18:02 | 51.78048 | 7.28756 | 157 ft | 4 kts | 323° |
| 2026-05-07 18:02 | 51.78068 | 7.28730 | 156 ft | 4 kts | 278° |
| 2026-05-07 18:02 | 51.78066 | 7.28726 | 156 ft | 0 kts | 154° |